sensor_id;sensor_type;location;lat;lon;timestamp;P1;durP1;ratioP1;P2;durP2;ratioP2
64834;SDS011;51293;59.296;18.006;2022-12-18T00:00:46;19.77;;;8.23;;
64834;SDS011;51293;59.296;18.006;2022-12-18T00:03:12;19.58;;;7.95;;
64834;SDS011;51293;59.296;18.006;2022-12-18T00:05:49;17.88;;;7.70;;
64834;SDS011;51293;59.296;18.006;2022-12-18T00:08:15;18.23;;;7.63;;
64834;SDS011;51293;59.296;18.006;2022-12-18T00:10:41;20.05;;;7.45;;
64834;SDS011;51293;59.296;18.006;2022-12-18T00:13:07;16.15;;;7.05;;
64834;SDS011;51293;59.296;18.006;2022-12-18T00:15:36;17.90;;;7.32;;
64834;SDS011;51293;59.296;18.006;2022-12-18T00:18:02;26.63;;;8.77;;
64834;SDS011;51293;59.296;18.006;2022-12-18T00:20:28;20.23;;;8.18;;
64834;SDS011;51293;59.296;18.006;2022-12-18T00:22:53;16.20;;;7.47;;
64834;SDS011;51293;59.296;18.006;2022-12-18T00:25:19;20.02;;;7.82;;
64834;SDS011;51293;59.296;18.006;2022-12-18T00:27:44;20.63;;;7.68;;
64834;SDS011;51293;59.296;18.006;2022-12-18T00:30:10;19.90;;;8.20;;
64834;SDS011;51293;59.296;18.006;2022-12-18T00:32:36;23.20;;;9.07;;
64834;SDS011;51293;59.296;18.006;2022-12-18T00:35:02;19.38;;;8.10;;
64834;SDS011;51293;59.296;18.006;2022-12-18T00:37:27;18.63;;;7.90;;
64834;SDS011;51293;59.296;18.006;2022-12-18T00:39:53;20.08;;;8.57;;
64834;SDS011;51293;59.296;18.006;2022-12-18T00:42:18;22.30;;;8.30;;
64834;SDS011;51293;59.296;18.006;2022-12-18T00:47:28;18.67;;;7.57;;
64834;SDS011;51293;59.296;18.006;2022-12-18T00:49:53;14.20;;;6.38;;
64834;SDS011;51293;59.296;18.006;2022-12-18T00:52:18;21.77;;;8.85;;
64834;SDS011;51293;59.296;18.006;2022-12-18T00:54:44;18.05;;;7.75;;
64834;SDS011;51293;59.296;18.006;2022-12-18T00:57:09;17.45;;;7.72;;
64834;SDS011;51293;59.296;18.006;2022-12-18T00:59:34;16.40;;;7.60;;
64834;SDS011;51293;59.296;18.006;2022-12-18T01:02:00;16.85;;;7.90;;
64834;SDS011;51293;59.296;18.006;2022-12-18T01:04:25;19.02;;;8.23;;
64834;SDS011;51293;59.296;18.006;2022-12-18T01:06:50;20.00;;;8.38;;
64834;SDS011;51293;59.296;18.006;2022-12-18T01:09:16;16.20;;;7.72;;
64834;SDS011;51293;59.296;18.006;2022-12-18T01:11:41;17.35;;;8.25;;
64834;SDS011;51293;59.296;18.006;2022-12-18T01:14:06;20.83;;;7.18;;
64834;SDS011;51293;59.296;18.006;2022-12-18T01:16:32;18.83;;;7.65;;
64834;SDS011;51293;59.296;18.006;2022-12-18T01:18:57;17.70;;;7.63;;
64834;SDS011;51293;59.296;18.006;2022-12-18T01:21:23;17.45;;;7.55;;
64834;SDS011;51293;59.296;18.006;2022-12-18T01:23:55;20.88;;;8.25;;
64834;SDS011;51293;59.296;18.006;2022-12-18T01:26:21;14.82;;;6.38;;
64834;SDS011;51293;59.296;18.006;2022-12-18T01:28:47;16.92;;;7.25;;
64834;SDS011;51293;59.296;18.006;2022-12-18T01:31:14;15.25;;;7.15;;
64834;SDS011;51293;59.296;18.006;2022-12-18T01:33:52;15.45;;;6.97;;
64834;SDS011;51293;59.296;18.006;2022-12-18T01:36:20;19.27;;;7.75;;
64834;SDS011;51293;59.296;18.006;2022-12-18T01:38:50;18.33;;;8.20;;
64834;SDS011;51293;59.296;18.006;2022-12-18T01:41:17;21.48;;;7.75;;
64834;SDS011;51293;59.296;18.006;2022-12-18T01:43:54;15.90;;;8.00;;
64834;SDS011;51293;59.296;18.006;2022-12-18T01:46:26;19.42;;;8.82;;
64834;SDS011;51293;59.296;18.006;2022-12-18T01:48:53;18.38;;;8.30;;
64834;SDS011;51293;59.296;18.006;2022-12-18T01:51:22;23.05;;;8.68;;
64834;SDS011;51293;59.296;18.006;2022-12-18T01:53:48;20.85;;;7.28;;
64834;SDS011;51293;59.296;18.006;2022-12-18T01:56:17;18.25;;;8.32;;
64834;SDS011;51293;59.296;18.006;2022-12-18T02:01:15;17.95;;;8.10;;
64834;SDS011;51293;59.296;18.006;2022-12-18T02:03:41;13.98;;;7.65;;
64834;SDS011;51293;59.296;18.006;2022-12-18T02:17:28;18.75;;;7.85;;
64834;SDS011;51293;59.296;18.006;2022-12-18T02:27:38;19.90;;;7.72;;
64834;SDS011;51293;59.296;18.006;2022-12-18T02:30:05;17.48;;;7.47;;
64834;SDS011;51293;59.296;18.006;2022-12-18T02:32:33;21.13;;;7.00;;
64834;SDS011;51293;59.296;18.006;2022-12-18T02:35:02;17.85;;;7.45;;
64834;SDS011;51293;59.296;18.006;2022-12-18T02:37:31;15.93;;;6.78;;
64834;SDS011;51293;59.296;18.006;2022-12-18T02:39:59;17.90;;;7.43;;
64834;SDS011;51293;59.296;18.006;2022-12-18T02:42:25;14.88;;;7.57;;
64834;SDS011;51293;59.296;18.006;2022-12-18T02:44:55;17.33;;;7.68;;
64834;SDS011;51293;59.296;18.006;2022-12-18T02:47:22;17.85;;;8.13;;
64834;SDS011;51293;59.296;18.006;2022-12-18T02:55:08;17.40;;;7.63;;
64834;SDS011;51293;59.296;18.006;2022-12-18T03:00:24;17.65;;;7.25;;
64834;SDS011;51293;59.296;18.006;2022-12-18T03:03:05;18.95;;;6.57;;
64834;SDS011;51293;59.296;18.006;2022-12-18T03:05:44;15.45;;;7.00;;
64834;SDS011;51293;59.296;18.006;2022-12-18T03:08:33;12.65;;;6.72;;
64834;SDS011;51293;59.296;18.006;2022-12-18T03:11:09;12.15;;;6.05;;
64834;SDS011;51293;59.296;18.006;2022-12-18T03:13:42;16.33;;;6.90;;
64834;SDS011;51293;59.296;18.006;2022-12-18T03:16:12;15.20;;;6.30;;
64834;SDS011;51293;59.296;18.006;2022-12-18T03:18:46;14.85;;;6.68;;
64834;SDS011;51293;59.296;18.006;2022-12-18T03:21:23;14.25;;;6.45;;
64834;SDS011;51293;59.296;18.006;2022-12-18T03:23:54;16.20;;;7.05;;
64834;SDS011;51293;59.296;18.006;2022-12-18T03:26:22;14.95;;;6.80;;
64834;SDS011;51293;59.296;18.006;2022-12-18T03:28:51;19.08;;;7.13;;
64834;SDS011;51293;59.296;18.006;2022-12-18T03:31:21;14.27;;;6.97;;
64834;SDS011;51293;59.296;18.006;2022-12-18T03:33:52;16.58;;;7.25;;
64834;SDS011;51293;59.296;18.006;2022-12-18T03:36:19;14.25;;;6.97;;
64834;SDS011;51293;59.296;18.006;2022-12-18T03:38:45;14.70;;;6.70;;
64834;SDS011;51293;59.296;18.006;2022-12-18T03:43:49;13.95;;;6.53;;
64834;SDS011;51293;59.296;18.006;2022-12-18T03:46:26;13.25;;;6.60;;
64834;SDS011;51293;59.296;18.006;2022-12-18T03:49:01;17.02;;;6.57;;
64834;SDS011;51293;59.296;18.006;2022-12-18T03:51:53;15.98;;;6.70;;
64834;SDS011;51293;59.296;18.006;2022-12-18T03:54:25;16.75;;;6.45;;
64834;SDS011;51293;59.296;18.006;2022-12-18T03:56:58;20.02;;;6.70;;
64834;SDS011;51293;59.296;18.006;2022-12-18T03:59:29;12.93;;;6.45;;
64834;SDS011;51293;59.296;18.006;2022-12-18T04:01:56;16.38;;;6.95;;
64834;SDS011;51293;59.296;18.006;2022-12-18T04:04:25;11.45;;;5.82;;
64834;SDS011;51293;59.296;18.006;2022-12-18T04:06:53;14.40;;;6.50;;
64834;SDS011;51293;59.296;18.006;2022-12-18T04:09:20;12.55;;;5.65;;
64834;SDS011;51293;59.296;18.006;2022-12-18T04:11:46;16.27;;;6.05;;
64834;SDS011;51293;59.296;18.006;2022-12-18T04:14:12;13.55;;;6.50;;
64834;SDS011;51293;59.296;18.006;2022-12-18T04:16:37;12.95;;;6.35;;
64834;SDS011;51293;59.296;18.006;2022-12-18T04:19:03;12.88;;;6.20;;
64834;SDS011;51293;59.296;18.006;2022-12-18T04:21:29;13.43;;;6.63;;
64834;SDS011;51293;59.296;18.006;2022-12-18T04:23:54;15.00;;;7.20;;
64834;SDS011;51293;59.296;18.006;2022-12-18T04:26:20;14.75;;;6.70;;
64834;SDS011;51293;59.296;18.006;2022-12-18T04:28:46;14.32;;;6.38;;
64834;SDS011;51293;59.296;18.006;2022-12-18T04:31:11;15.57;;;6.93;;
64834;SDS011;51293;59.296;18.006;2022-12-18T04:33:37;15.70;;;6.22;;
64834;SDS011;51293;59.296;18.006;2022-12-18T04:36:02;16.58;;;6.25;;
64834;SDS011;51293;59.296;18.006;2022-12-18T04:38:28;14.10;;;5.93;;
64834;SDS011;51293;59.296;18.006;2022-12-18T04:40:53;14.63;;;5.65;;
64834;SDS011;51293;59.296;18.006;2022-12-18T04:43:19;13.88;;;6.00;;
64834;SDS011;51293;59.296;18.006;2022-12-18T04:45:44;13.10;;;5.78;;
64834;SDS011;51293;59.296;18.006;2022-12-18T04:48:10;12.35;;;5.70;;
64834;SDS011;51293;59.296;18.006;2022-12-18T04:50:35;13.63;;;5.60;;
64834;SDS011;51293;59.296;18.006;2022-12-18T04:53:01;13.85;;;6.30;;
64834;SDS011;51293;59.296;18.006;2022-12-18T04:55:26;16.98;;;6.63;;
64834;SDS011;51293;59.296;18.006;2022-12-18T04:57:52;16.40;;;6.35;;
64834;SDS011;51293;59.296;18.006;2022-12-18T05:00:18;13.43;;;6.22;;
64834;SDS011;51293;59.296;18.006;2022-12-18T05:02:44;17.83;;;6.50;;
64834;SDS011;51293;59.296;18.006;2022-12-18T05:05:09;13.75;;;6.20;;
64834;SDS011;51293;59.296;18.006;2022-12-18T05:07:35;12.65;;;5.68;;
64834;SDS011;51293;59.296;18.006;2022-12-18T05:10:00;15.18;;;6.00;;
64834;SDS011;51293;59.296;18.006;2022-12-18T05:12:26;14.27;;;5.63;;
64834;SDS011;51293;59.296;18.006;2022-12-18T05:14:51;15.27;;;6.20;;
64834;SDS011;51293;59.296;18.006;2022-12-18T05:17:17;14.55;;;6.45;;
64834;SDS011;51293;59.296;18.006;2022-12-18T05:19:42;13.68;;;5.75;;
64834;SDS011;51293;59.296;18.006;2022-12-18T05:22:08;13.82;;;6.10;;
64834;SDS011;51293;59.296;18.006;2022-12-18T05:24:34;12.68;;;5.88;;
64834;SDS011;51293;59.296;18.006;2022-12-18T05:27:00;15.38;;;5.90;;
64834;SDS011;51293;59.296;18.006;2022-12-18T05:29:25;13.88;;;5.47;;
64834;SDS011;51293;59.296;18.006;2022-12-18T05:31:50;14.75;;;6.38;;
64834;SDS011;51293;59.296;18.006;2022-12-18T05:34:16;11.55;;;5.32;;
64834;SDS011;51293;59.296;18.006;2022-12-18T05:36:41;9.88;;;5.22;;
64834;SDS011;51293;59.296;18.006;2022-12-18T05:39:07;13.85;;;5.97;;
64834;SDS011;51293;59.296;18.006;2022-12-18T05:41:32;11.90;;;5.13;;
64834;SDS011;51293;59.296;18.006;2022-12-18T05:43:58;13.73;;;5.57;;
64834;SDS011;51293;59.296;18.006;2022-12-18T05:46:24;14.45;;;6.38;;
64834;SDS011;51293;59.296;18.006;2022-12-18T05:48:49;12.32;;;5.93;;
64834;SDS011;51293;59.296;18.006;2022-12-18T05:51:16;15.43;;;5.88;;
64834;SDS011;51293;59.296;18.006;2022-12-18T05:53:43;11.20;;;5.28;;
64834;SDS011;51293;59.296;18.006;2022-12-18T05:56:10;15.73;;;5.40;;
64834;SDS011;51293;59.296;18.006;2022-12-18T05:58:37;13.45;;;5.95;;
64834;SDS011;51293;59.296;18.006;2022-12-18T06:01:23;9.82;;;5.10;;
64834;SDS011;51293;59.296;18.006;2022-12-18T06:03:51;12.68;;;5.60;;
64834;SDS011;51293;59.296;18.006;2022-12-18T06:06:17;15.07;;;6.10;;
64834;SDS011;51293;59.296;18.006;2022-12-18T06:08:53;12.25;;;5.18;;
64834;SDS011;51293;59.296;18.006;2022-12-18T06:11:20;17.58;;;5.53;;
64834;SDS011;51293;59.296;18.006;2022-12-18T06:13:51;11.55;;;5.55;;
64834;SDS011;51293;59.296;18.006;2022-12-18T06:16:17;12.90;;;5.50;;
64834;SDS011;51293;59.296;18.006;2022-12-18T06:18:43;14.93;;;5.90;;
64834;SDS011;51293;59.296;18.006;2022-12-18T06:21:08;11.50;;;4.72;;
64834;SDS011;51293;59.296;18.006;2022-12-18T06:23:34;15.05;;;5.43;;
64834;SDS011;51293;59.296;18.006;2022-12-18T06:26:07;17.52;;;5.70;;
64834;SDS011;51293;59.296;18.006;2022-12-18T06:30:59;12.07;;;4.95;;
64834;SDS011;51293;59.296;18.006;2022-12-18T06:33:26;11.13;;;5.15;;
64834;SDS011;51293;59.296;18.006;2022-12-18T06:35:53;14.15;;;5.50;;
64834;SDS011;51293;59.296;18.006;2022-12-18T06:38:18;12.48;;;5.55;;
64834;SDS011;51293;59.296;18.006;2022-12-18T06:40:44;10.93;;;5.22;;
64834;SDS011;51293;59.296;18.006;2022-12-18T06:43:09;14.45;;;5.13;;
64834;SDS011;51293;59.296;18.006;2022-12-18T06:45:35;14.57;;;6.13;;
64834;SDS011;51293;59.296;18.006;2022-12-18T06:48:00;14.77;;;5.35;;
64834;SDS011;51293;59.296;18.006;2022-12-18T06:50:25;14.20;;;5.75;;
64834;SDS011;51293;59.296;18.006;2022-12-18T06:52:51;13.70;;;5.80;;
64834;SDS011;51293;59.296;18.006;2022-12-18T06:55:16;13.88;;;5.60;;
64834;SDS011;51293;59.296;18.006;2022-12-18T06:57:42;12.52;;;5.88;;
64834;SDS011;51293;59.296;18.006;2022-12-18T07:00:07;15.50;;;5.82;;
64834;SDS011;51293;59.296;18.006;2022-12-18T07:02:33;13.10;;;5.97;;
64834;SDS011;51293;59.296;18.006;2022-12-18T07:04:58;15.43;;;6.07;;
64834;SDS011;51293;59.296;18.006;2022-12-18T07:07:24;13.88;;;6.10;;
64834;SDS011;51293;59.296;18.006;2022-12-18T07:09:49;13.32;;;5.60;;
64834;SDS011;51293;59.296;18.006;2022-12-18T07:12:15;14.18;;;6.30;;
64834;SDS011;51293;59.296;18.006;2022-12-18T07:14:41;14.30;;;5.82;;
64834;SDS011;51293;59.296;18.006;2022-12-18T07:17:06;16.05;;;5.63;;
64834;SDS011;51293;59.296;18.006;2022-12-18T07:19:32;14.38;;;6.13;;
64834;SDS011;51293;59.296;18.006;2022-12-18T07:21:58;16.20;;;5.80;;
64834;SDS011;51293;59.296;18.006;2022-12-18T07:24:23;17.45;;;6.38;;
64834;SDS011;51293;59.296;18.006;2022-12-18T07:26:48;14.35;;;5.85;;
64834;SDS011;51293;59.296;18.006;2022-12-18T07:29:14;16.88;;;6.50;;
64834;SDS011;51293;59.296;18.006;2022-12-18T07:31:39;14.40;;;5.70;;
64834;SDS011;51293;59.296;18.006;2022-12-18T07:34:05;13.90;;;6.35;;
64834;SDS011;51293;59.296;18.006;2022-12-18T07:36:30;13.98;;;6.28;;
64834;SDS011;51293;59.296;18.006;2022-12-18T07:38:55;13.60;;;5.70;;
64834;SDS011;51293;59.296;18.006;2022-12-18T07:41:21;15.63;;;6.55;;
64834;SDS011;51293;59.296;18.006;2022-12-18T07:43:46;15.07;;;6.53;;
64834;SDS011;51293;59.296;18.006;2022-12-18T07:46:12;14.98;;;5.95;;
64834;SDS011;51293;59.296;18.006;2022-12-18T07:48:39;16.25;;;6.18;;
64834;SDS011;51293;59.296;18.006;2022-12-18T07:51:06;14.50;;;6.10;;
64834;SDS011;51293;59.296;18.006;2022-12-18T07:53:32;15.40;;;6.68;;
64834;SDS011;51293;59.296;18.006;2022-12-18T07:55:59;16.90;;;6.18;;
64834;SDS011;51293;59.296;18.006;2022-12-18T07:58:27;13.70;;;6.40;;
64834;SDS011;51293;59.296;18.006;2022-12-18T08:00:53;16.67;;;5.68;;
64834;SDS011;51293;59.296;18.006;2022-12-18T08:03:19;15.30;;;6.78;;
64834;SDS011;51293;59.296;18.006;2022-12-18T08:05:44;18.63;;;6.53;;
64834;SDS011;51293;59.296;18.006;2022-12-18T08:08:10;15.82;;;7.18;;
64834;SDS011;51293;59.296;18.006;2022-12-18T08:10:35;12.07;;;6.20;;
64834;SDS011;51293;59.296;18.006;2022-12-18T08:13:02;16.25;;;6.25;;
64834;SDS011;51293;59.296;18.006;2022-12-18T08:15:27;14.52;;;6.88;;
64834;SDS011;51293;59.296;18.006;2022-12-18T08:17:55;19.17;;;7.30;;
64834;SDS011;51293;59.296;18.006;2022-12-18T08:20:21;17.48;;;7.22;;
64834;SDS011;51293;59.296;18.006;2022-12-18T08:22:47;16.20;;;7.38;;
64834;SDS011;51293;59.296;18.006;2022-12-18T08:25:12;14.90;;;6.68;;
64834;SDS011;51293;59.296;18.006;2022-12-18T08:27:37;14.98;;;6.70;;
64834;SDS011;51293;59.296;18.006;2022-12-18T08:30:03;16.10;;;7.80;;
64834;SDS011;51293;59.296;18.006;2022-12-18T08:32:29;16.45;;;7.45;;
64834;SDS011;51293;59.296;18.006;2022-12-18T08:34:55;16.73;;;7.55;;
64834;SDS011;51293;59.296;18.006;2022-12-18T08:37:20;19.77;;;7.90;;
64834;SDS011;51293;59.296;18.006;2022-12-18T08:39:45;18.35;;;7.40;;
64834;SDS011;51293;59.296;18.006;2022-12-18T08:42:11;14.07;;;6.28;;
64834;SDS011;51293;59.296;18.006;2022-12-18T08:44:54;16.83;;;7.32;;
64834;SDS011;51293;59.296;18.006;2022-12-18T08:47:20;17.38;;;6.43;;
64834;SDS011;51293;59.296;18.006;2022-12-18T08:49:45;16.38;;;7.07;;
64834;SDS011;51293;59.296;18.006;2022-12-18T08:52:10;16.17;;;7.20;;
64834;SDS011;51293;59.296;18.006;2022-12-18T08:54:39;14.95;;;7.00;;
64834;SDS011;51293;59.296;18.006;2022-12-18T08:57:04;20.52;;;7.70;;
64834;SDS011;51293;59.296;18.006;2022-12-18T08:59:29;20.42;;;8.10;;
64834;SDS011;51293;59.296;18.006;2022-12-18T09:01:55;18.08;;;7.78;;
64834;SDS011;51293;59.296;18.006;2022-12-18T09:04:21;19.55;;;7.00;;
64834;SDS011;51293;59.296;18.006;2022-12-18T09:06:47;18.65;;;7.38;;
64834;SDS011;51293;59.296;18.006;2022-12-18T09:09:12;19.48;;;7.72;;
64834;SDS011;51293;59.296;18.006;2022-12-18T09:11:38;19.60;;;7.47;;
64834;SDS011;51293;59.296;18.006;2022-12-18T09:14:03;18.77;;;7.97;;
64834;SDS011;51293;59.296;18.006;2022-12-18T09:16:29;17.75;;;7.25;;
64834;SDS011;51293;59.296;18.006;2022-12-18T09:18:55;19.67;;;7.47;;
64834;SDS011;51293;59.296;18.006;2022-12-18T09:21:24;19.30;;;8.15;;
64834;SDS011;51293;59.296;18.006;2022-12-18T09:23:51;19.02;;;7.93;;
64834;SDS011;51293;59.296;18.006;2022-12-18T09:26:21;14.68;;;7.10;;
64834;SDS011;51293;59.296;18.006;2022-12-18T09:28:47;18.25;;;8.10;;
64834;SDS011;51293;59.296;18.006;2022-12-18T09:31:17;14.73;;;7.25;;
64834;SDS011;51293;59.296;18.006;2022-12-18T09:33:44;17.75;;;6.95;;
64834;SDS011;51293;59.296;18.006;2022-12-18T09:36:10;16.20;;;6.65;;
64834;SDS011;51293;59.296;18.006;2022-12-18T09:38:38;14.57;;;6.65;;
64834;SDS011;51293;59.296;18.006;2022-12-18T09:41:15;14.05;;;6.10;;
64834;SDS011;51293;59.296;18.006;2022-12-18T09:43:51;18.85;;;7.28;;
64834;SDS011;51293;59.296;18.006;2022-12-18T09:46:26;14.73;;;7.03;;
64834;SDS011;51293;59.296;18.006;2022-12-18T09:48:56;13.15;;;6.72;;
64834;SDS011;51293;59.296;18.006;2022-12-18T09:51:30;17.58;;;6.47;;
64834;SDS011;51293;59.296;18.006;2022-12-18T09:54:21;13.30;;;6.30;;
64834;SDS011;51293;59.296;18.006;2022-12-18T09:56:48;15.10;;;7.18;;
64834;SDS011;51293;59.296;18.006;2022-12-18T10:01:51;16.15;;;6.90;;
64834;SDS011;51293;59.296;18.006;2022-12-18T10:04:16;19.65;;;7.10;;
64834;SDS011;51293;59.296;18.006;2022-12-18T10:09:29;18.52;;;6.68;;
64834;SDS011;51293;59.296;18.006;2022-12-18T10:17:36;14.73;;;6.75;;
64834;SDS011;51293;59.296;18.006;2022-12-18T10:22:56;16.00;;;7.18;;
64834;SDS011;51293;59.296;18.006;2022-12-18T10:28:20;16.75;;;6.78;;
64834;SDS011;51293;59.296;18.006;2022-12-18T10:30:45;16.33;;;7.50;;
64834;SDS011;51293;59.296;18.006;2022-12-18T10:33:21;15.13;;;6.32;;
64834;SDS011;51293;59.296;18.006;2022-12-18T10:35:49;14.45;;;7.47;;
64834;SDS011;51293;59.296;18.006;2022-12-18T10:43:14;15.65;;;6.40;;
64834;SDS011;51293;59.296;18.006;2022-12-18T10:45:41;13.82;;;6.45;;
64834;SDS011;51293;59.296;18.006;2022-12-18T10:48:18;15.70;;;6.88;;
64834;SDS011;51293;59.296;18.006;2022-12-18T10:50:46;17.58;;;8.38;;
64834;SDS011;51293;59.296;18.006;2022-12-18T10:53:17;18.77;;;7.97;;
64834;SDS011;51293;59.296;18.006;2022-12-18T10:55:46;16.40;;;7.20;;
64834;SDS011;51293;59.296;18.006;2022-12-18T10:58:34;15.52;;;6.82;;
64834;SDS011;51293;59.296;18.006;2022-12-18T11:01:16;13.23;;;6.60;;
64834;SDS011;51293;59.296;18.006;2022-12-18T11:06:23;19.10;;;7.43;;
64834;SDS011;51293;59.296;18.006;2022-12-18T11:09:33;19.15;;;7.43;;
64834;SDS011;51293;59.296;18.006;2022-12-18T11:11:56;16.88;;;6.75;;
64834;SDS011;51293;59.296;18.006;2022-12-18T11:19:58;13.15;;;6.32;;
64834;SDS011;51293;59.296;18.006;2022-12-18T11:22:30;15.48;;;7.53;;
64834;SDS011;51293;59.296;18.006;2022-12-18T11:25:12;17.52;;;7.35;;
64834;SDS011;51293;59.296;18.006;2022-12-18T11:27:54;15.05;;;6.65;;
64834;SDS011;51293;59.296;18.006;2022-12-18T11:30:32;14.45;;;6.68;;
64834;SDS011;51293;59.296;18.006;2022-12-18T11:33:05;14.90;;;6.57;;
64834;SDS011;51293;59.296;18.006;2022-12-18T11:38:28;16.27;;;7.10;;
64834;SDS011;51293;59.296;18.006;2022-12-18T11:41:41;15.93;;;7.35;;
64834;SDS011;51293;59.296;18.006;2022-12-18T11:44:13;16.63;;;7.60;;
64834;SDS011;51293;59.296;18.006;2022-12-18T11:46:45;13.45;;;6.05;;
64834;SDS011;51293;59.296;18.006;2022-12-18T11:49:24;13.52;;;5.75;;
64834;SDS011;51293;59.296;18.006;2022-12-18T11:52:00;18.08;;;7.50;;
64834;SDS011;51293;59.296;18.006;2022-12-18T11:54:43;15.70;;;7.05;;
64834;SDS011;51293;59.296;18.006;2022-12-18T12:02:37;13.40;;;6.20;;
64834;SDS011;51293;59.296;18.006;2022-12-18T12:16:27;16.05;;;6.22;;
64834;SDS011;51293;59.296;18.006;2022-12-18T12:19:48;14.10;;;5.85;;
64834;SDS011;51293;59.296;18.006;2022-12-18T12:27:51;15.77;;;6.45;;
64834;SDS011;51293;59.296;18.006;2022-12-18T12:33:58;16.02;;;6.93;;
64834;SDS011;51293;59.296;18.006;2022-12-18T12:39:18;14.25;;;5.63;;
64834;SDS011;51293;59.296;18.006;2022-12-18T12:41:48;12.68;;;5.82;;
64834;SDS011;51293;59.296;18.006;2022-12-18T12:44:34;18.38;;;7.20;;
64834;SDS011;51293;59.296;18.006;2022-12-18T12:47:16;19.48;;;6.93;;
64834;SDS011;51293;59.296;18.006;2022-12-18T12:49:45;17.65;;;6.80;;
64834;SDS011;51293;59.296;18.006;2022-12-18T12:52:15;15.85;;;6.03;;
64834;SDS011;51293;59.296;18.006;2022-12-18T12:55:23;14.15;;;5.82;;
64834;SDS011;51293;59.296;18.006;2022-12-18T12:58:14;14.68;;;6.95;;
64834;SDS011;51293;59.296;18.006;2022-12-18T13:00:46;15.48;;;6.35;;
64834;SDS011;51293;59.296;18.006;2022-12-18T13:06:23;21.15;;;6.90;;
64834;SDS011;51293;59.296;18.006;2022-12-18T13:08:58;15.68;;;5.78;;
64834;SDS011;51293;59.296;18.006;2022-12-18T13:11:41;13.73;;;6.07;;
64834;SDS011;51293;59.296;18.006;2022-12-18T13:14:37;20.10;;;6.43;;
64834;SDS011;51293;59.296;18.006;2022-12-18T13:20:11;17.55;;;5.90;;
64834;SDS011;51293;59.296;18.006;2022-12-18T13:25:26;15.68;;;5.85;;
64834;SDS011;51293;59.296;18.006;2022-12-18T13:28:04;16.45;;;5.70;;
64834;SDS011;51293;59.296;18.006;2022-12-18T13:43:40;13.13;;;5.38;;
64834;SDS011;51293;59.296;18.006;2022-12-18T13:48:55;13.60;;;5.18;;
64834;SDS011;51293;59.296;18.006;2022-12-18T13:51:23;11.55;;;5.03;;
64834;SDS011;51293;59.296;18.006;2022-12-18T13:56:31;13.75;;;4.97;;
64834;SDS011;51293;59.296;18.006;2022-12-18T14:02:14;13.18;;;5.03;;
64834;SDS011;51293;59.296;18.006;2022-12-18T14:04:44;15.20;;;4.60;;
64834;SDS011;51293;59.296;18.006;2022-12-18T14:07:11;8.90;;;4.38;;
64834;SDS011;51293;59.296;18.006;2022-12-18T14:09:42;13.77;;;5.15;;
64834;SDS011;51293;59.296;18.006;2022-12-18T14:12:20;14.93;;;4.68;;
64834;SDS011;51293;59.296;18.006;2022-12-18T14:17:52;13.48;;;4.45;;
64834;SDS011;51293;59.296;18.006;2022-12-18T14:20:20;11.75;;;4.57;;
64834;SDS011;51293;59.296;18.006;2022-12-18T14:22:46;7.82;;;3.75;;
64834;SDS011;51293;59.296;18.006;2022-12-18T14:30:34;11.40;;;4.85;;
64834;SDS011;51293;59.296;18.006;2022-12-18T14:33:11;10.50;;;4.22;;
64834;SDS011;51293;59.296;18.006;2022-12-18T14:35:42;9.40;;;3.67;;
64834;SDS011;51293;59.296;18.006;2022-12-18T14:38:23;9.20;;;4.13;;
64834;SDS011;51293;59.296;18.006;2022-12-18T14:43:33;13.18;;;4.32;;
64834;SDS011;51293;59.296;18.006;2022-12-18T14:46:00;7.85;;;3.92;;
64834;SDS011;51293;59.296;18.006;2022-12-18T14:51:02;10.55;;;4.38;;
64834;SDS011;51293;59.296;18.006;2022-12-18T14:56:01;8.25;;;3.88;;
64834;SDS011;51293;59.296;18.006;2022-12-18T14:58:27;10.13;;;3.67;;
64834;SDS011;51293;59.296;18.006;2022-12-18T15:00:53;11.75;;;3.42;;
64834;SDS011;51293;59.296;18.006;2022-12-18T15:03:19;8.60;;;3.28;;
64834;SDS011;51293;59.296;18.006;2022-12-18T15:05:45;11.25;;;3.72;;
64834;SDS011;51293;59.296;18.006;2022-12-18T15:08:26;12.10;;;4.00;;
64834;SDS011;51293;59.296;18.006;2022-12-18T15:13:22;13.68;;;3.58;;
64834;SDS011;51293;59.296;18.006;2022-12-18T15:15:49;19.10;;;4.32;;
64834;SDS011;51293;59.296;18.006;2022-12-18T15:18:16;8.18;;;3.30;;
64834;SDS011;51293;59.296;18.006;2022-12-18T15:26:16;7.70;;;3.13;;
64834;SDS011;51293;59.296;18.006;2022-12-18T15:28:50;11.02;;;3.05;;
64834;SDS011;51293;59.296;18.006;2022-12-18T15:34:10;7.47;;;2.75;;
64834;SDS011;51293;59.296;18.006;2022-12-18T15:36:42;7.75;;;3.08;;
64834;SDS011;51293;59.296;18.006;2022-12-18T15:39:10;12.57;;;3.15;;
64834;SDS011;51293;59.296;18.006;2022-12-18T15:41:37;10.07;;;2.72;;
64834;SDS011;51293;59.296;18.006;2022-12-18T15:44:02;8.52;;;2.70;;
64834;SDS011;51293;59.296;18.006;2022-12-18T15:46:28;6.97;;;3.58;;
64834;SDS011;51293;59.296;18.006;2022-12-18T15:48:55;5.93;;;2.83;;
64834;SDS011;51293;59.296;18.006;2022-12-18T15:51:28;9.20;;;2.85;;
64834;SDS011;51293;59.296;18.006;2022-12-18T15:53:58;8.70;;;2.72;;
64834;SDS011;51293;59.296;18.006;2022-12-18T15:56:26;10.63;;;3.30;;
64834;SDS011;51293;59.296;18.006;2022-12-18T16:01:39;11.63;;;3.05;;
64834;SDS011;51293;59.296;18.006;2022-12-18T16:04:06;9.40;;;2.70;;
64834;SDS011;51293;59.296;18.006;2022-12-18T16:06:34;11.60;;;2.78;;
64834;SDS011;51293;59.296;18.006;2022-12-18T16:08:59;13.05;;;2.85;;
64834;SDS011;51293;59.296;18.006;2022-12-18T16:11:28;12.90;;;2.67;;
64834;SDS011;51293;59.296;18.006;2022-12-18T16:14:18;12.85;;;2.55;;
64834;SDS011;51293;59.296;18.006;2022-12-18T16:16:52;9.13;;;2.72;;
64834;SDS011;51293;59.296;18.006;2022-12-18T16:19:20;5.32;;;2.03;;
64834;SDS011;51293;59.296;18.006;2022-12-18T16:21:46;7.55;;;2.33;;
64834;SDS011;51293;59.296;18.006;2022-12-18T16:24:17;10.15;;;2.40;;
64834;SDS011;51293;59.296;18.006;2022-12-18T16:26:47;6.75;;;2.05;;
64834;SDS011;51293;59.296;18.006;2022-12-18T16:29:12;6.60;;;1.70;;
64834;SDS011;51293;59.296;18.006;2022-12-18T16:31:38;6.18;;;1.63;;
64834;SDS011;51293;59.296;18.006;2022-12-18T16:34:25;4.88;;;1.90;;
64834;SDS011;51293;59.296;18.006;2022-12-18T16:36:51;7.10;;;2.03;;
64834;SDS011;51293;59.296;18.006;2022-12-18T16:39:18;7.43;;;1.65;;
64834;SDS011;51293;59.296;18.006;2022-12-18T16:41:44;8.93;;;2.17;;
64834;SDS011;51293;59.296;18.006;2022-12-18T16:44:10;8.20;;;2.17;;
64834;SDS011;51293;59.296;18.006;2022-12-18T16:46:35;7.22;;;2.00;;
64834;SDS011;51293;59.296;18.006;2022-12-18T16:49:02;10.88;;;1.70;;
64834;SDS011;51293;59.296;18.006;2022-12-18T16:51:28;5.80;;;2.00;;
64834;SDS011;51293;59.296;18.006;2022-12-18T16:53:53;12.30;;;2.28;;
64834;SDS011;51293;59.296;18.006;2022-12-18T16:56:20;9.73;;;1.73;;
64834;SDS011;51293;59.296;18.006;2022-12-18T16:58:52;8.10;;;1.90;;
64834;SDS011;51293;59.296;18.006;2022-12-18T17:03:55;7.38;;;1.83;;
64834;SDS011;51293;59.296;18.006;2022-12-18T17:06:23;6.78;;;1.80;;
64834;SDS011;51293;59.296;18.006;2022-12-18T17:08:56;5.78;;;1.75;;
64834;SDS011;51293;59.296;18.006;2022-12-18T17:11:23;9.88;;;1.73;;
64834;SDS011;51293;59.296;18.006;2022-12-18T17:13:49;7.65;;;2.05;;
64834;SDS011;51293;59.296;18.006;2022-12-18T17:16:15;7.75;;;1.70;;